Time;durP1;ratioP1;P1;durP2;ratioP2;P2;SDS_P1;SDS_P2;PMS_P1;PMS_P2;Temp;Humidity;BMP_temperature;BMP_pressure;BME280_temperature;BME280_humidity;BME280_pressure;Samples;Min_cycle;Max_cycle;Signal;HPM_P1;HPM_P2
2021/08/02 00:02:41;;;;;;;4.93;4.50;;;16.20;99.90;;;;;;6225129;28;20177;-73
2021/08/02 00:05:46;;;;;;;4.93;4.53;;;16.20;99.90;;;;;;6225192;28;20133;-73
2021/08/02 00:08:56;;;;;;;5.78;4.20;;;16.20;99.90;;;;;;6230463;28;20685;-73
2021/08/02 00:12:01;;;;;;;10.18;4.32;;;16.10;99.90;;;;;;6245942;28;20046;-73
2021/08/02 00:15:05;;;;;;;5.82;4.13;;;16.00;99.90;;;;;;6248664;28;20095;-73
2021/08/02 00:18:07;;;;;;;6.13;4.07;;;16.00;99.90;;;;;;6248361;28;20179;-73
2021/08/02 00:21:09;;;;;;;4.97;4.50;;;16.00;99.90;;;;;;6248812;28;20037;-73
2021/08/02 00:24:11;;;;;;;5.15;4.03;;;16.00;99.90;;;;;;6248167;28;20041;-73
2021/08/02 00:27:14;;;;;;;4.95;4.45;;;15.90;99.90;;;;;;6248175;28;20602;-73
2021/08/02 00:30:18;;;;;;;7.10;5.57;;;15.90;99.90;;;;;;6249110;28;20046;-73
2021/08/02 00:33:20;;;;;;;5.70;4.03;;;15.90;99.90;;;;;;6248359;28;20045;-73
2021/08/02 00:36:31;;;;;;;11.85;4.50;;;15.80;99.90;;;;;;6248799;28;20526;-73
2021/08/02 00:39:38;;;;;;;4.65;4.20;;;15.80;99.90;;;;;;6248091;28;20124;-73
2021/08/02 00:42:58;;;;;;;6.82;4.50;;;15.70;99.90;;;;;;6248131;28;20499;-73
2021/08/02 00:46:02;;;;;;;9.05;4.85;;;15.70;99.90;;;;;;6248682;28;20060;-73
2021/08/02 00:49:06;;;;;;;6.53;5.07;;;15.60;99.90;;;;;;6246237;28;20049;-73
2021/08/02 00:52:09;;;;;;;8.00;4.57;;;15.60;99.90;;;;;;6248304;28;20128;-73
2021/08/02 00:55:13;;;;;;;6.30;4.63;;;15.60;99.90;;;;;;6248248;28;20048;-73
2021/08/02 00:58:18;;;;;;;4.90;3.88;;;15.60;99.90;;;;;;6248141;28;20095;-73
2021/08/02 01:01:22;;;;;;;6.53;4.15;;;15.50;99.90;;;;;;6248045;28;20086;-73
2021/08/02 01:04:24;;;;;;;7.03;4.40;;;15.50;99.90;;;;;;6247957;28;20125;-73
2021/08/02 01:07:27;;;;;;;8.98;4.50;;;15.50;99.90;;;;;;6247451;28;20041;-73
2021/08/02 01:10:33;;;;;;;8.60;5.05;;;15.50;99.90;;;;;;6247075;28;20723;-73
2021/08/02 01:13:36;;;;;;;7.38;4.55;;;15.40;99.90;;;;;;6248038;28;20053;-73
2021/08/02 01:16:41;;;;;;;6.18;4.10;;;15.40;99.90;;;;;;6247278;28;20128;-73
2021/08/02 01:19:44;;;;;;;4.72;4.05;;;15.30;99.90;;;;;;6247565;28;20392;-73
2021/08/02 01:22:47;;;;;;;5.88;5.00;;;15.30;99.90;;;;;;6247506;28;20128;-73
2021/08/02 01:26:19;;;;;;;4.60;4.15;;;15.20;99.90;;;;;;6247508;28;20049;-73
2021/08/02 01:29:58;;;;;;;7.60;4.95;;;15.20;99.90;;;;;;6247185;28;20124;-73
2021/08/02 01:33:00;;;;;;;6.30;4.60;;;15.10;99.90;;;;;;6247028;28;20132;-73
2021/08/02 01:36:04;;;;;;;5.68;3.40;;;15.00;99.90;;;;;;6247080;28;20051;-73
2021/08/02 01:39:07;;;;;;;7.25;4.72;;;15.00;99.90;;;;;;6246996;28;20410;-73
2021/08/02 01:42:09;;;;;;;8.35;4.32;;;14.90;99.90;;;;;;6247483;28;20050;-73
2021/08/02 01:45:12;;;;;;;6.65;4.78;;;14.80;99.90;;;;;;6246991;28;20053;-73
2021/08/02 01:48:20;;;;;;;6.60;5.03;;;14.80;99.90;;;;;;6247021;28;20049;-73
2021/08/02 01:51:25;;;;;;;6.50;4.95;;;14.70;99.90;;;;;;6246716;28;20041;-73
2021/08/02 01:54:41;;;;;;;5.80;5.05;;;14.70;99.90;;;;;;6247130;28;20055;-73
2021/08/02 01:57:49;;;;;;;6.97;5.88;;;14.60;99.90;;;;;;6246876;28;20046;-74
2021/08/02 02:00:51;;;;;;;;;;;14.60;99.90;;;;;;6247227;28;20042;-73
2021/08/02 02:03:54;;;;;;;5.60;4.45;;;14.60;99.90;;;;;;6246833;28;19923;-73
2021/08/02 02:07:00;;;;;;;6.68;5.63;;;14.50;99.90;;;;;;6246596;28;20037;-73
2021/08/02 02:10:06;;;;;;;8.25;7.20;;;14.50;99.90;;;;;;6247043;28;20131;-73
2021/08/02 02:13:12;;;;;;;12.68;5.97;;;14.50;99.90;;;;;;6246694;28;20103;-73
2021/08/02 02:16:18;;;;;;;8.50;5.50;;;14.50;99.90;;;;;;6246312;28;20045;-73
2021/08/02 02:19:22;;;;;;;8.20;5.97;;;14.50;99.90;;;;;;6246862;28;20099;-73
2021/08/02 02:22:26;;;;;;;7.00;5.93;;;14.50;99.90;;;;;;6246529;28;20045;-73
2021/08/02 02:25:30;;;;;;;9.90;6.90;;;14.50;99.90;;;;;;6246829;28;20566;-73
2021/08/02 02:28:34;;;;;;;12.07;8.23;;;14.50;99.90;;;;;;6246335;28;20053;-73
2021/08/02 02:31:36;;;;;;;16.77;7.32;;;14.50;99.90;;;;;;6246452;28;20063;-73
2021/08/02 02:34:38;;;;;;;6.75;6.05;;;14.50;99.90;;;;;;6246474;28;20151;-73
2021/08/02 02:37:42;;;;;;;8.40;6.30;;;14.60;99.90;;;;;;6246527;28;20456;-73
2021/08/02 02:40:46;;;;;;;12.05;6.88;;;14.60;99.90;;;;;;6246372;28;20071;-73
2021/08/02 02:43:50;;;;;;;13.48;7.20;;;14.60;99.90;;;;;;6246521;28;20531;-74
2021/08/02 02:46:53;;;;;;;9.57;6.65;;;14.60;99.90;;;;;;6246157;28;20067;-73
2021/08/02 02:49:56;;;;;;;11.55;7.78;;;14.60;99.90;;;;;;6246817;28;20134;-74
2021/08/02 02:52:58;;;;;;;12.10;9.30;;;14.60;99.90;;;;;;6246239;28;20057;-74
2021/08/02 02:56:08;;;;;;;9.07;6.68;;;14.60;99.90;;;;;;6245960;28;20499;-73
2021/08/02 02:59:10;;;;;;;9.50;6.68;;;14.50;99.90;;;;;;6246208;28;20037;-74
2021/08/02 03:02:12;;;;;;;10.45;7.10;;;14.60;99.90;;;;;;6247985;28;20137;-74
2021/08/02 03:05:14;;;;;;;11.63;6.82;;;14.50;99.90;;;;;;6250804;28;20606;-74
2021/08/02 03:08:18;;;;;;;10.68;6.97;;;14.50;99.90;;;;;;6250362;28;20570;-74
2021/08/02 03:11:22;;;;;;;12.07;6.07;;;14.60;99.90;;;;;;6250460;28;20499;-74
2021/08/02 03:14:24;;;;;;;10.63;6.53;;;14.60;99.90;;;;;;6250635;28;20089;-73
2021/08/02 03:17:26;;;;;;;9.02;7.38;;;14.50;99.90;;;;;;6250514;28;20106;-73
2021/08/02 03:20:28;;;;;;;10.55;7.43;;;14.50;99.90;;;;;;6250651;28;20132;-74
2021/08/02 03:23:34;;;;;;;15.45;8.45;;;14.50;99.90;;;;;;6250351;28;20110;-74
2021/08/02 03:26:44;;;;;;;17.00;10.75;;;14.50;99.90;;;;;;6250249;28;20132;-74
2021/08/02 03:29:48;;;;;;;10.25;6.72;;;14.40;99.90;;;;;;6250846;28;20144;-74
2021/08/02 03:32:52;;;;;;;10.23;7.78;;;14.50;99.90;;;;;;6250227;28;20111;-73
2021/08/02 03:35:57;;;;;;;14.82;9.30;;;14.50;99.90;;;;;;6250046;28;20045;-73
2021/08/02 03:39:00;;;;;;;13.85;8.98;;;14.60;99.90;;;;;;6250309;28;20052;-73
2021/08/02 03:42:04;;;;;;;13.95;8.65;;;14.70;99.90;;;;;;6250320;28;20534;-74
2021/08/02 03:45:08;;;;;;;13.13;8.30;;;14.70;99.90;;;;;;6249988;28;20052;-74
2021/08/02 03:48:11;;;;;;;14.13;8.80;;;14.80;99.90;;;;;;6249458;28;20117;-74
2021/08/02 03:51:13;;;;;;;11.35;9.40;;;14.80;99.90;;;;;;6249770;28;20046;-74
2021/08/02 03:54:16;;;;;;;12.38;8.57;;;14.90;99.90;;;;;;6249679;28;20049;-74
2021/08/02 03:57:20;;;;;;;14.65;8.35;;;14.90;99.90;;;;;;6249218;28;20045;-73
2021/08/02 04:00:23;;;;;;;13.40;8.85;;;15.00;99.90;;;;;;6249367;28;20077;-73
2021/08/02 04:03:25;;;;;;;12.35;7.55;;;15.00;99.90;;;;;;6249015;28;20518;-73
2021/08/02 04:06:27;;;;;;;9.43;8.27;;;15.10;99.90;;;;;;6248691;28;20131;-73
2021/08/02 04:09:29;;;;;;;10.90;7.55;;;15.10;99.90;;;;;;6248911;28;20136;-73
2021/08/02 04:12:32;;;;;;;9.55;7.90;;;15.10;99.90;;;;;;6248237;28;20127;-73
2021/08/02 04:15:34;;;;;;;9.63;6.97;;;15.10;99.90;;;;;;6248533;28;20084;-73
2021/08/02 04:18:35;;;;;;;12.50;8.35;;;15.10;99.90;;;;;;6248835;28;20045;-73
2021/08/02 04:21:37;;;;;;;10.13;7.63;;;15.20;99.90;;;;;;6248979;28;20130;-73
2021/08/02 04:24:39;;;;;;;15.93;9.15;;;15.20;99.90;;;;;;6248701;28;20079;-73
2021/08/02 04:27:42;;;;;;;10.93;8.15;;;15.30;99.90;;;;;;6248324;28;20216;-73
2021/08/02 04:30:44;;;;;;;12.00;7.88;;;15.30;99.90;;;;;;6248553;28;20087;-73
2021/08/02 04:33:46;;;;;;;13.73;9.20;;;15.30;99.90;;;;;;6248621;28;20092;-73
2021/08/02 04:36:49;;;;;;;10.07;7.60;;;15.30;99.90;;;;;;6248019;28;20069;-73
2021/08/02 04:39:53;;;;;;;10.35;7.60;;;15.40;99.90;;;;;;6248211;28;20128;-73
2021/08/02 04:42:56;;;;;;;8.48;7.03;;;15.40;99.90;;;;;;6247936;28;20045;-74
2021/08/02 04:45:57;;;;;;;10.32;6.25;;;15.40;99.90;;;;;;6248264;28;20085;-73
2021/08/02 04:48:59;;;;;;;9.07;7.03;;;15.40;99.90;;;;;;6247807;28;20135;-73
2021/08/02 04:52:01;;;;;;;12.32;8.63;;;15.50;99.90;;;;;;6247646;28;20453;-73
2021/08/02 04:55:03;;;;;;;12.20;7.43;;;15.50;99.90;;;;;;6247994;28;20124;-73
2021/08/02 04:58:07;;;;;;;10.07;7.45;;;15.50;99.90;;;;;;6247766;28;20131;-73
2021/08/02 05:01:08;;;;;;;8.95;7.68;;;15.50;99.90;;;;;;6247684;28;20232;-73
2021/08/02 05:04:10;;;;;;;7.72;6.93;;;15.60;99.90;;;;;;6247457;28;20430;-73
2021/08/02 05:07:12;;;;;;;7.10;5.65;;;15.60;99.90;;;;;;6247012;28;20057;-73
2021/08/02 05:10:14;;;;;;;7.60;6.65;;;15.60;99.90;;;;;;6247669;28;20080;-73
2021/08/02 05:13:17;;;;;;;8.77;6.38;;;15.70;99.90;;;;;;6247243;28;20120;-73
2021/08/02 05:16:19;;;;;;;7.47;5.50;;;15.70;99.90;;;;;;6246984;28;20054;-73
2021/08/02 05:19:21;;;;;;;8.93;5.88;;;15.80;99.90;;;;;;6247284;28;20037;-73
2021/08/02 05:22:23;;;;;;;8.68;6.22;;;15.80;99.90;;;;;;6247882;28;20051;-73
2021/08/02 05:25:24;;;;;;;5.70;5.10;;;15.90;99.90;;;;;;6246740;28;20049;-73
2021/08/02 05:28:27;;;;;;;7.68;4.65;;;15.90;99.90;;;;;;6246932;28;20142;-73
2021/08/02 05:31:29;;;;;;;7.40;5.78;;;16.00;99.90;;;;;;6246936;28;20125;-73
2021/08/02 05:34:31;;;;;;;5.68;5.18;;;16.00;99.90;;;;;;6246853;28;20546;-73
2021/08/02 05:37:33;;;;;;;5.63;4.88;;;16.10;99.90;;;;;;6247144;28;20076;-73
2021/08/02 05:40:35;;;;;;;5.30;4.40;;;16.10;99.90;;;;;;6246792;28;20055;-73
2021/08/02 05:43:38;;;;;;;5.35;4.82;;;16.20;99.90;;;;;;6246807;28;20079;-73
2021/08/02 05:46:40;;;;;;;5.72;4.88;;;16.20;99.90;;;;;;6246247;28;20418;-73
2021/08/02 05:49:41;;;;;;;5.85;4.05;;;16.30;99.90;;;;;;6247303;28;20080;-73
2021/08/02 05:52:43;;;;;;;6.47;5.00;;;16.30;99.90;;;;;;6246443;28;20098;-73
2021/08/02 05:55:45;;;;;;;6.70;4.38;;;16.40;99.90;;;;;;6246079;28;20045;-73
2021/08/02 05:58:48;;;;;;;5.13;4.45;;;16.50;99.90;;;;;;6246077;28;20104;-73
2021/08/02 06:01:50;;;;;;;11.88;4.28;;;16.60;99.90;;;;;;6246392;28;20135;-73
2021/08/02 06:04:52;;;;;;;4.82;4.28;;;16.70;99.90;;;;;;6236514;28;20517;-73
2021/08/02 06:07:53;;;;;;;4.93;4.43;;;16.80;99.90;;;;;;6245809;28;20049;-73
2021/08/02 06:10:55;;;;;;;9.45;4.43;;;16.90;99.90;;;;;;6245848;28;20527;-73
2021/08/02 06:13:58;;;;;;;6.07;4.20;;;16.90;99.90;;;;;;6245921;28;20772;-73
2021/08/02 06:17:00;;;;;;;7.78;3.70;;;17.00;99.90;;;;;;6245931;28;20053;-73
2021/08/02 06:20:02;;;;;;;7.82;3.70;;;17.10;99.90;;;;;;6245803;28;20538;-74
2021/08/02 06:23:04;;;;;;;4.32;2.70;;;17.20;99.90;;;;;;6245845;28;20125;-73
2021/08/02 06:26:06;;;;;;;3.45;3.03;;;17.30;99.90;;;;;;6246063;28;20360;-73
2021/08/02 06:29:09;;;;;;;3.50;3.17;;;17.40;99.90;;;;;;6245845;28;20049;-73
2021/08/02 06:32:11;;;;;;;5.50;3.35;;;17.60;99.90;;;;;;6245862;28;20128;-73
2021/08/02 06:35:13;;;;;;;2.83;2.58;;;17.80;99.90;;;;;;6245720;28;20049;-73
2021/08/02 06:38:15;;;;;;;5.82;2.72;;;17.90;99.90;;;;;;6251233;28;20538;-73
2021/08/02 06:41:17;;;;;;;4.82;2.97;;;18.10;99.90;;;;;;6251235;28;20057;-73
2021/08/02 06:44:20;;;;;;;9.35;3.08;;;18.30;99.90;;;;;;6250701;28;20228;-73
2021/08/02 06:47:22;;;;;;;3.03;2.70;;;18.40;99.90;;;;;;6250474;28;20479;-73
2021/08/02 06:50:25;;;;;;;3.05;2.45;;;18.50;98.60;;;;;;6250885;28;20045;-73
2021/08/02 06:53:26;;;;;;;3.33;2.33;;;18.60;96.60;;;;;;6250840;28;20052;-73
2021/08/02 06:56:28;;;;;;;3.13;2.65;;;18.60;96.30;;;;;;6250331;28;20534;-73
2021/08/02 06:59:31;;;;;;;2.95;2.75;;;18.60;96.30;;;;;;6250592;28;20434;-73
2021/08/02 07:02:33;;;;;;;8.32;2.70;;;18.80;95.50;;;;;;6250289;28;20041;-73
2021/08/02 07:05:35;;;;;;;2.38;2.17;;;19.00;95.20;;;;;;6250800;28;20115;-74
2021/08/02 07:08:38;;;;;;;5.18;2.28;;;19.50;94.20;;;;;;6250079;28;20049;-73
2021/08/02 07:11:39;;;;;;;2.55;2.35;;;19.70;92.30;;;;;;6250398;28;20045;-73
2021/08/02 07:14:43;;;;;;;5.78;1.75;;;19.90;90.80;;;;;;6250040;28;20049;-73
2021/08/02 07:17:44;;;;;;;4.07;2.15;;;20.10;89.80;;;;;;6250407;28;20053;-73
2021/08/02 07:20:48;;;;;;;6.70;2.28;;;20.20;88.60;;;;;;6250062;28;20092;-74
2021/08/02 07:23:50;;;;;;;2.97;2.00;;;20.40;87.80;;;;;;6249888;28;20236;-73
2021/08/02 07:26:52;;;;;;;2.75;2.30;;;20.40;85.70;;;;;;6249839;28;20495;-74
2021/08/02 07:29:55;;;;;;;4.10;1.67;;;20.30;84.80;;;;;;6249838;28;20562;-73
2021/08/02 07:32:57;;;;;;;2.10;1.92;;;20.30;84.40;;;;;;6249266;28;20041;-73
2021/08/02 07:35:59;;;;;;;3.13;2.40;;;20.30;82.60;;;;;;6249852;28;20128;-73
2021/08/02 07:39:01;;;;;;;2.70;2.00;;;20.30;82.90;;;;;;6249749;28;20037;-73
2021/08/02 07:42:03;;;;;;;1.92;1.70;;;20.30;82.40;;;;;;6249774;28;20119;-73
2021/08/02 07:45:07;;;;;;;3.92;2.20;;;20.40;82.10;;;;;;6247010;28;20053;-73
2021/08/02 07:48:09;;;;;;;2.70;1.48;;;20.50;81.60;;;;;;6248455;28;20158;-74
2021/08/02 07:51:11;;;;;;;2.13;1.67;;;20.60;80.70;;;;;;6250781;28;20132;-73
2021/08/02 07:54:13;;;;;;;2.13;1.80;;;20.70;79.40;;;;;;6249846;28;20081;-74
2021/08/02 07:57:14;;;;;;;3.45;2.10;;;20.80;79.20;;;;;;6249849;28;20069;-73
2021/08/02 08:00:18;;;;;;;4.07;2.20;;;20.80;77.80;;;;;;6249382;28;20081;-74
2021/08/02 08:03:20;;;;;;;4.40;2.03;;;20.80;77.20;;;;;;6249438;28;20044;-74
2021/08/02 08:06:22;;;;;;;2.85;2.20;;;20.80;77.00;;;;;;6249576;28;20054;-74
2021/08/02 08:09:24;;;;;;;4.53;1.80;;;20.90;77.50;;;;;;6249493;28;20146;-73
2021/08/02 08:12:26;;;;;;;3.13;1.58;;;21.00;75.70;;;;;;6248789;28;20049;-74
2021/08/02 08:15:29;;;;;;;3.58;2.25;;;21.20;75.50;;;;;;6249068;28;20252;-74
2021/08/02 08:18:31;;;;;;;3.45;1.88;;;21.30;75.10;;;;;;6248497;28;20439;-74
2021/08/02 08:21:35;;;;;;;3.08;1.90;;;21.50;73.90;;;;;;6249048;28;20096;-74
2021/08/02 08:24:37;;;;;;;2.85;1.45;;;21.60;72.80;;;;;;6248721;28;20046;-74
2021/08/02 08:27:39;;;;;;;2.65;2.25;;;21.80;72.40;;;;;;6248505;28;20129;-74
2021/08/02 08:30:43;;;;;;;2.28;1.90;;;22.10;72.50;;;;;;6248725;28;20059;-74
2021/08/02 08:33:46;;;;;;;2.40;2.20;;;22.40;71.10;;;;;;6248962;28;20200;-74
2021/08/02 08:36:48;;;;;;;3.28;2.00;;;22.90;70.30;;;;;;6248159;28;20063;-74
2021/08/02 08:39:50;;;;;;;4.30;1.88;;;23.40;68.30;;;;;;6248283;28;20127;-74
2021/08/02 08:42:52;;;;;;;4.45;1.80;;;23.70;66.00;;;;;;6248599;28;20072;-74
2021/08/02 08:45:55;;;;;;;2.80;1.92;;;24.00;64.80;;;;;;6248651;28;20188;-74
2021/08/02 08:48:57;;;;;;;2.60;1.50;;;24.00;64.40;;;;;;6248122;28;20049;-73
2021/08/02 08:52:00;;;;;;;4.65;2.03;;;24.10;64.00;;;;;;6248287;28;20172;-73
2021/08/02 08:55:04;;;;;;;4.90;2.20;;;24.10;63.70;;;;;;6247964;28;20633;-73
2021/08/02 08:58:06;;;;;;;3.97;1.70;;;24.10;62.80;;;;;;6248136;28;20087;-74
2021/08/02 09:01:09;;;;;;;4.38;1.83;;;24.00;63.60;;;;;;6246876;28;20057;-74
2021/08/02 09:04:11;;;;;;;2.42;1.55;;;23.90;63.20;;;;;;6247547;28;20422;-73
2021/08/02 09:07:13;;;;;;;2.05;1.50;;;23.80;63.40;;;;;;6247169;28;20128;-73
2021/08/02 09:10:17;;;;;;;2.58;1.60;;;23.80;63.30;;;;;;6248012;28;20075;-73
2021/08/02 09:13:29;;;;;;;6.50;2.45;;;23.70;63.20;;;;;;6246852;28;20052;-73
2021/08/02 09:16:32;;;;;;;2.00;1.40;;;23.60;63.10;;;;;;6247243;28;20046;-73
2021/08/02 09:19:41;;;;;;;6.20;2.00;;;23.60;63.00;;;;;;6247055;28;20041;-73
2021/08/02 09:22:43;;;;;;;4.70;1.83;;;23.60;62.90;;;;;;6247109;28;20155;-73
2021/08/02 09:25:47;;;;;;;3.40;1.70;;;23.60;62.60;;;;;;6247331;28;20192;-73
2021/08/02 09:28:52;;;;;;;5.13;2.45;;;23.70;62.20;;;;;;6247275;28;20420;-73
2021/08/02 09:31:56;;;;;;;3.35;2.22;;;23.60;61.90;;;;;;6246953;28;20474;-73
2021/08/02 09:34:58;;;;;;;3.28;1.67;;;23.70;62.40;;;;;;6246839;28;20163;-73
2021/08/02 09:38:02;;;;;;;4.57;1.85;;;23.80;61.90;;;;;;6246961;28;20056;-73
2021/08/02 09:41:04;;;;;;;2.95;2.05;;;24.00;61.00;;;;;;6247038;28;20057;-73
2021/08/02 09:44:07;;;;;;;1.90;1.65;;;24.00;61.20;;;;;;6246729;28;20111;-73
2021/08/02 09:47:10;;;;;;;2.63;2.08;;;24.10;61.70;;;;;;6247178;28;20045;-73
2021/08/02 09:50:12;;;;;;;3.38;2.20;;;24.10;61.10;;;;;;6247250;28;20126;-73
2021/08/02 09:53:15;;;;;;;5.05;2.90;;;24.20;60.20;;;;;;6246688;28;20042;-73
2021/08/02 09:56:18;;;;;;;2.95;2.47;;;24.30;60.10;;;;;;6246498;28;20175;-73
2021/08/02 09:59:20;;;;;;;2.42;1.60;;;24.40;60.90;;;;;;6246625;28;20041;-73
2021/08/02 10:02:24;;;;;;;4.88;1.90;;;24.50;61.30;;;;;;6247222;28;20126;-73
2021/08/02 10:05:26;;;;;;;3.83;1.90;;;24.60;61.30;;;;;;6246397;28;20049;-73
2021/08/02 10:08:29;;;;;;;2.10;1.65;;;24.90;60.40;;;;;;6246289;28;20511;-73
2021/08/02 10:11:32;;;;;;;2.08;1.50;;;25.10;59.30;;;;;;6246386;28;20041;-73
2021/08/02 10:14:35;;;;;;;3.40;1.70;;;25.50;57.80;;;;;;6245879;28;20519;-73
2021/08/02 10:17:38;;;;;;;3.38;1.70;;;26.00;58.00;;;;;;6246505;28;20050;-73
2021/08/02 10:20:40;;;;;;;1.38;1.10;;;26.50;56.50;;;;;;6247438;28;20041;-73
2021/08/02 10:23:42;;;;;;;4.47;2.33;;;26.80;55.50;;;;;;6246109;28;20037;-73
2021/08/02 10:26:56;;;;;;;6.55;1.98;;;27.20;54.70;;;;;;6246229;28;20057;-73
2021/08/02 10:29:58;;;;;;;1.63;1.20;;;27.40;53.90;;;;;;6246510;28;20049;-73
2021/08/02 10:33:01;;;;;;;1.95;1.15;;;27.30;53.10;;;;;;6245891;28;20092;-73
2021/08/02 10:36:13;;;;;;;2.33;1.70;;;27.10;53.80;;;;;;6246127;28;20571;-74
2021/08/02 10:39:22;;;;;;;1.67;0.95;;;27.10;53.40;;;;;;6246342;28;20125;-73
2021/08/02 10:42:24;;;;;;;2.55;0.98;;;27.10;52.10;;;;;;6245988;28;20060;-73
2021/08/02 10:45:30;;;;;;;1.23;1.10;;;26.90;51.80;;;;;;6246184;28;20179;-74
2021/08/02 10:48:33;;;;;;;1.67;0.80;;;26.60;51.60;;;;;;6245598;28;20128;-74
2021/08/02 10:51:46;;;;;;;1.10;0.90;;;26.20;52.20;;;;;;6246067;28;20042;-74
2021/08/02 10:54:48;;;;;;;1.20;1.10;;;26.00;53.70;;;;;;6245956;28;20140;-74
2021/08/02 10:57:57;;;;;;;3.05;0.70;;;26.00;52.90;;;;;;6245990;28;20139;-74
2021/08/02 11:01:02;;;;;;;1.23;0.80;;;26.10;52.60;;;;;;6245939;28;20054;-74
2021/08/02 11:04:13;;;;;;;0.85;0.82;;;26.60;51.40;;;;;;6245705;28;20123;-73
2021/08/02 11:07:16;;;;;;;1.23;1.13;;;27.00;51.20;;;;;;6245949;28;20041;-74
2021/08/02 11:10:18;;;;;;;2.50;0.80;;;27.20;50.80;;;;;;6246303;28;20057;-73
2021/08/02 11:13:27;;;;;;;8.73;1.35;;;27.60;50.50;;;;;;6245691;28;20056;-74
2021/08/02 11:16:29;;;;;;;2.33;1.65;;;27.70;49.90;;;;;;6245346;28;20049;-74
2021/08/02 11:19:32;;;;;;;2.80;1.05;;;27.40;50.60;;;;;;6245857;28;20049;-74
2021/08/02 11:22:38;;;;;;;1.23;0.88;;;26.80;51.30;;;;;;6246316;28;20054;-74
2021/08/02 11:25:40;;;;;;;2.95;1.23;;;26.00;53.40;;;;;;6250838;28;20516;-74
2021/08/02 11:28:44;;;;;;;1.42;1.15;;;25.30;54.80;;;;;;6250242;28;20497;-74
2021/08/02 11:31:54;;;;;;;3.30;1.15;;;24.80;56.50;;;;;;6250380;28;20132;-74
2021/08/02 11:34:59;;;;;;;5.72;1.92;;;24.40;58.30;;;;;;6249709;28;20131;-74
2021/08/02 11:38:01;;;;;;;2.38;1.25;;;24.10;60.60;;;;;;6251267;28;20088;-74
2021/08/02 11:41:03;;;;;;;3.22;1.60;;;23.70;63.10;;;;;;6250326;28;20045;-73
2021/08/02 11:44:06;;;;;;;1.10;0.90;;;23.50;61.90;;;;;;6249745;28;20063;-73
2021/08/02 11:47:11;;;;;;;1.33;0.93;;;23.40;61.80;;;;;;6250743;28;20167;-73
2021/08/02 11:50:16;;;;;;;1.67;1.05;;;23.30;63.80;;;;;;6255055;28;20081;-74
2021/08/02 11:53:18;;;;;;;1.63;1.33;;;23.30;63.40;;;;;;6271700;28;20034;-72
2021/08/02 11:56:31;;;;;;;1.45;1.10;;;23.30;63.70;;;;;;6281733;28;20068;-73
2021/08/02 11:59:33;;;;;;;5.50;2.45;;;23.40;64.00;;;;;;6282012;28;20061;-73
2021/08/02 12:02:36;;;;;;;1.65;1.15;;;23.40;64.70;;;;;;6281760;28;20033;-73
2021/08/02 12:05:40;;;;;;;1.77;1.08;;;23.50;65.40;;;;;;6281953;28;20072;-70
2021/08/02 12:08:52;;;;;;;2.90;1.45;;;24.00;64.40;;;;;;6281713;28;20034;-72
2021/08/02 12:11:54;;;;;;;1.88;0.80;;;24.10;63.30;;;;;;6281170;28;20048;-73
2021/08/02 12:15:05;;;;;;;1.42;0.90;;;24.20;59.40;;;;;;6280752;28;20049;-73
2021/08/02 12:18:07;;;;;;;2.05;1.15;;;24.60;58.00;;;;;;6280874;28;20044;-72
2021/08/02 12:21:17;;;;;;;1.33;1.20;;;25.00;57.80;;;;;;6266840;28;20099;-73
2021/08/02 12:24:19;;;;;;;4.97;1.30;;;25.40;57.10;;;;;;6248749;28;20501;-73
2021/08/02 12:27:22;;;;;;;1.48;1.38;;;25.70;55.40;;;;;;6244184;28;20129;-73
2021/08/02 12:30:23;;;;;;;1.63;1.25;;;25.70;54.90;;;;;;6238851;28;20577;-73
2021/08/02 12:33:26;;;;;;;3.28;1.25;;;25.90;55.50;;;;;;6247489;28;20171;-73
2021/08/02 12:36:29;;;;;;;3.17;1.02;;;26.00;54.60;;;;;;6247123;28;20451;-73
2021/08/02 12:39:32;;;;;;;1.08;0.80;;;26.30;53.90;;;;;;6247381;28;20045;-73
2021/08/02 12:42:35;;;;;;;1.38;1.20;;;26.40;53.80;;;;;;6247453;28;20146;-75
2021/08/02 12:45:37;;;;;;;1.50;1.02;;;26.50;54.20;;;;;;6247523;28;20045;-73
2021/08/02 12:48:39;;;;;;;11.40;1.17;;;26.70;53.90;;;;;;6247007;28;20525;-74
2021/08/02 12:51:42;;;;;;;1.80;0.98;;;26.80;53.10;;;;;;6246867;28;20452;-74
2021/08/02 12:54:44;;;;;;;2.80;1.30;;;26.80;52.60;;;;;;6247284;28;20160;-73
2021/08/02 12:57:46;;;;;;;2.60;1.85;;;27.00;53.00;;;;;;6247077;28;20103;-74
2021/08/02 13:00:48;;;;;;;4.45;1.73;;;27.10;53.60;;;;;;6246919;28;20085;-73
2021/08/02 13:03:50;;;;;;;3.10;1.30;;;27.20;53.30;;;;;;6247066;28;20045;-73
2021/08/02 13:06:53;;;;;;;1.15;0.93;;;27.50;53.70;;;;;;6246455;28;20095;-74
2021/08/02 13:09:56;;;;;;;1.60;1.42;;;27.50;51.50;;;;;;6247556;28;20136;-74
2021/08/02 13:12:58;;;;;;;3.55;1.23;;;27.30;50.80;;;;;;6246653;28;20106;-74
2021/08/02 13:16:00;;;;;;;2.38;1.02;;;27.10;51.50;;;;;;6246682;28;20140;-74
2021/08/02 13:19:01;;;;;;;3.13;1.98;;;26.80;52.00;;;;;;6246441;28;20762;-75
2021/08/02 13:22:05;;;;;;;2.03;1.48;;;26.60;52.30;;;;;;6246395;28;20060;-75
2021/08/02 13:28:30;;;;;;;3.22;1.58;;;26.30;53.50;;;;;;6245833;28;20045;-74
2021/08/02 13:31:32;;;;;;;4.30;1.73;;;26.30;54.40;;;;;;6245231;28;20052;-75
2021/08/02 13:34:35;;;;;;;1.48;0.80;;;26.30;53.70;;;;;;6246981;28;20116;-75
2021/08/02 13:37:38;;;;;;;1.30;0.85;;;26.30;52.30;;;;;;6246206;28;20099;-75
2021/08/02 13:40:40;;;;;;;2.65;0.77;;;26.50;52.40;;;;;;6245917;28;20049;-75
2021/08/02 13:43:42;;;;;;;0.65;0.38;;;26.70;50.80;;;;;;6246328;28;20060;-75
2021/08/02 13:46:46;;;;;;;0.93;0.57;;;26.80;49.70;;;;;;6245940;28;20123;-76
2021/08/02 13:49:48;;;;;;;1.42;0.70;;;26.80;48.90;;;;;;6245401;28;20135;-75
2021/08/02 13:52:51;;;;;;;0.80;0.60;;;26.70;49.30;;;;;;6246559;28;20500;-75
2021/08/02 13:55:54;;;;;;;1.27;0.40;;;26.70;49.90;;;;;;6246589;28;20123;-75
2021/08/02 13:58:56;;;;;;;1.88;0.60;;;26.80;49.00;;;;;;6246371;28;20474;-76
2021/08/02 14:01:58;;;;;;;1.55;0.93;;;26.80;49.00;;;;;;6247270;28;20522;-75
2021/08/02 14:04:59;;;;;;;0.75;0.60;;;26.80;48.30;;;;;;6246115;28;20504;-76
2021/08/02 14:08:03;;;;;;;3.28;0.80;;;26.70;48.90;;;;;;6246588;28;20052;-76
2021/08/02 14:11:12;;;;;;;1.80;0.82;;;26.60;48.70;;;;;;6246075;28;20098;-75
2021/08/02 14:14:15;;;;;;;1.45;0.60;;;26.60;48.70;;;;;;6246774;28;20049;-76
2021/08/02 14:17:22;;;;;;;3.95;0.40;;;26.50;48.00;;;;;;6245629;28;20132;-75
2021/08/02 14:20:25;;;;;;;0.75;0.50;;;26.50;48.90;;;;;;6245989;28;20049;-76
2021/08/02 14:23:29;;;;;;;0.98;0.70;;;26.50;49.20;;;;;;6245865;28;20115;-76
2021/08/02 14:26:31;;;;;;;2.25;0.98;;;26.60;48.20;;;;;;6245541;28;20053;-75
2021/08/02 14:29:33;;;;;;;0.55;0.40;;;26.60;48.00;;;;;;6244644;28;20045;-75
2021/08/02 14:32:37;;;;;;;3.97;0.55;;;26.50;47.80;;;;;;6242721;28;20049;-76
2021/08/02 14:35:41;;;;;;;1.58;0.90;;;26.60;48.50;;;;;;6245920;28;20053;-75
2021/08/02 14:38:48;;;;;;;1.30;1.10;;;26.60;48.30;;;;;;6245893;28;20057;-76
2021/08/02 14:41:56;;;;;;;1.15;0.80;;;26.70;47.40;;;;;;6246634;28;20180;-75
2021/08/02 14:45:01;;;;;;;0.80;0.52;;;26.90;48.30;;;;;;6246494;28;20046;-76
2021/08/02 14:48:02;;;;;;;1.23;0.60;;;27.10;47.40;;;;;;6245098;28;20135;-75
2021/08/02 14:51:06;;;;;;;0.47;0.40;;;27.30;46.50;;;;;;6244302;28;20098;-75
2021/08/02 14:54:11;;;;;;;1.98;0.73;;;27.20;46.20;;;;;;6245623;28;20049;-76
2021/08/02 14:57:15;;;;;;;2.13;0.40;;;27.30;46.50;;;;;;6244973;28;20538;-76
2021/08/02 15:00:17;;;;;;;2.80;0.50;;;27.50;46.90;;;;;;6249886;28;20625;-76
2021/08/02 15:03:22;;;;;;;0.43;0.32;;;27.40;45.60;;;;;;6250170;28;20047;-76
2021/08/02 15:06:26;;;;;;;1.02;0.73;;;27.10;45.90;;;;;;6250504;28;20099;-75
2021/08/02 15:09:31;;;;;;;1.50;0.60;;;26.80;46.00;;;;;;6250731;28;20057;-76
2021/08/02 15:12:33;;;;;;;0.55;0.55;;;26.60;46.20;;;;;;6250379;28;20107;-76
2021/08/02 15:15:36;;;;;;;1.23;0.50;;;26.40;46.70;;;;;;6249923;28;20155;-76
2021/08/02 15:18:42;;;;;;;0.50;0.50;;;26.20;46.90;;;;;;6250123;28;20056;-76
2021/08/02 15:21:45;;;;;;;2.33;0.70;;;25.90;48.30;;;;;;6250425;28;20053;-76
2021/08/02 15:24:49;;;;;;;1.00;0.85;;;25.60;49.00;;;;;;6250110;28;20127;-76
2021/08/02 15:27:53;;;;;;;0.80;0.40;;;25.20;50.00;;;;;;6247580;28;20049;-76
2021/08/02 15:30:56;;;;;;;1.58;0.65;;;24.80;51.00;;;;;;6239377;28;20096;-76
2021/08/02 15:33:59;;;;;;;0.70;0.70;;;24.50;52.20;;;;;;6224993;28;20045;-76
2021/08/02 15:37:02;;;;;;;1.42;1.05;;;24.20;52.90;;;;;;6223477;28;20173;-76
2021/08/02 15:40:09;;;;;;;2.50;1.27;;;23.90;53.90;;;;;;6225304;28;20042;-76
2021/08/02 15:43:11;;;;;;;0.67;0.63;;;23.60;55.90;;;;;;6236164;28;20132;-76
2021/08/02 15:46:14;;;;;;;2.60;0.95;;;23.40;58.90;;;;;;6248351;28;20099;-76
2021/08/02 15:49:18;;;;;;;2.03;1.20;;;23.00;62.30;;;;;;6249357;28;20056;-75
2021/08/02 15:52:27;;;;;;;2.38;1.13;;;22.30;68.40;;;;;;6248976;28;20060;-75
2021/08/02 15:55:32;;;;;;;1.23;1.13;;;21.40;71.60;;;;;;6248940;28;20037;-74
2021/08/02 15:58:38;;;;;;;5.60;1.50;;;20.70;74.50;;;;;;6249809;28;20068;-75